createdAt,value
2023-03-05T00:02:52.775Z,67.95
2023-03-05T00:08:17.050Z,67.87
2023-03-05T00:13:40.833Z,67.79
2023-03-05T00:19:04.822Z,67.77
2023-03-05T00:24:32.807Z,67.72
2023-03-05T00:29:57.291Z,67.69
2023-03-05T00:35:21.994Z,67.63
2023-03-05T00:40:48.473Z,67.68
2023-03-05T00:46:11.654Z,67.86
2023-03-05T00:51:35.779Z,68.11
2023-03-05T00:57:00.494Z,68.26
2023-03-05T01:02:27.038Z,68.39
2023-03-05T01:07:51.777Z,68.61
2023-03-05T01:13:15.203Z,68.70
2023-03-05T01:18:40.687Z,68.85
2023-03-05T01:24:05.268Z,69.00
2023-03-05T01:29:28.565Z,69.12
2023-03-05T01:34:52.348Z,69.44
2023-03-05T01:40:17.412Z,69.70
2023-03-05T01:45:43.367Z,69.91
2023-03-05T01:51:08.326Z,70.15
2023-03-05T01:56:32.420Z,70.41
2023-03-05T02:01:59.191Z,70.69
2023-03-05T02:07:24.304Z,71.08
2023-03-05T02:12:47.406Z,71.44
2023-03-05T02:18:10.372Z,71.81
2023-03-05T02:29:13.945Z,72.88
2023-03-05T02:34:38.645Z,72.91
2023-03-05T02:40:03.879Z,73.30
2023-03-05T02:45:28.730Z,73.80
2023-03-05T02:50:55.122Z,74.29
2023-03-05T02:56:19.609Z,74.67
2023-03-05T03:01:42.690Z,75.16
2023-03-05T03:07:05.704Z,75.56
2023-03-05T03:12:28.932Z,75.79
2023-03-05T03:17:52.806Z,76.01
2023-03-05T03:23:15.176Z,75.94
2023-03-05T03:28:37.445Z,75.85
2023-03-05T03:33:59.762Z,75.83
2023-03-05T03:39:24.316Z,75.76
2023-03-05T03:44:47.190Z,75.74
2023-03-05T03:50:11.242Z,75.57
2023-03-05T03:55:33.927Z,75.34
2023-03-05T04:00:58.952Z,75.24
2023-03-05T04:06:21.898Z,75.15
2023-03-05T04:11:44.553Z,75.06
2023-03-05T04:17:06.819Z,74.93
2023-03-05T04:22:33.638Z,74.73
2023-03-05T04:27:57.607Z,74.70
2023-03-05T04:33:20.386Z,74.70
2023-03-05T04:38:43.436Z,74.83
2023-03-05T04:44:05.636Z,74.93
2023-03-05T04:49:28.030Z,74.95
2023-03-05T04:54:51.516Z,74.93
2023-03-05T05:00:15.348Z,74.88
2023-03-05T05:05:40.562Z,74.87
2023-03-05T05:11:10.280Z,74.89
2023-03-05T05:16:32.463Z,74.93
2023-03-05T05:21:55.878Z,74.96
2023-03-05T05:27:18.144Z,75.04
2023-03-05T05:32:42.381Z,75.15
2023-03-05T05:38:06.254Z,75.24
2023-03-05T05:43:31.145Z,75.31
2023-03-05T05:48:56.876Z,75.43
2023-03-05T05:54:22.817Z,75.61
2023-03-05T05:59:48.129Z,75.81
2023-03-05T06:05:12.553Z,76.07
2023-03-05T06:10:34.756Z,76.24
2023-03-05T06:16:06.888Z,76.43
2023-03-05T06:21:32.200Z,76.62
2023-03-05T06:26:55.041Z,76.82
2023-03-05T06:32:19.182Z,77.01
2023-03-05T06:37:42.262Z,77.25
2023-03-05T06:43:04.516Z,77.61
2023-03-05T06:48:26.797Z,78.15
2023-03-05T06:53:49.784Z,78.96
2023-03-05T06:59:12.869Z,80.12
2023-03-05T07:04:35.887Z,81.64
2023-03-05T07:09:58.091Z,83.38
2023-03-05T07:15:21.660Z,85.19
2023-03-05T07:20:43.980Z,86.83
2023-03-05T07:26:09.644Z,88.43
2023-03-05T07:31:35.309Z,89.96
2023-03-05T07:36:58.143Z,91.45
2023-03-05T07:42:21.082Z,92.78
2023-03-05T07:47:43.392Z,93.98
2023-03-05T07:53:06.031Z,94.93
2023-03-05T07:58:28.323Z,95.69
2023-03-05T08:03:50.841Z,96.40
2023-03-05T08:09:13.363Z,96.85
2023-03-05T08:14:36.147Z,97.40
2023-03-05T08:20:00.014Z,97.84
2023-03-05T08:25:23.335Z,98.29
2023-03-05T08:30:47.336Z,98.39
2023-03-05T08:36:10.020Z,98.45
2023-03-05T08:41:32.361Z,97.98
2023-03-05T08:46:54.718Z,97.39
2023-03-05T08:52:17.137Z,96.69
2023-03-05T08:57:39.398Z,95.96
2023-03-05T09:03:01.817Z,94.96
2023-03-05T09:08:25.321Z,93.93
2023-03-05T09:13:48.296Z,92.38
2023-03-05T09:19:13.381Z,90.67
2023-03-05T09:24:36.881Z,88.27
2023-03-05T09:29:59.377Z,86.08
2023-03-05T09:35:22.746Z,83.43
2023-03-05T09:41:04.285Z,81.34
2023-03-05T09:46:49.351Z,80.12
2023-03-05T09:52:16.447Z,78.55
2023-03-05T09:57:58.599Z,77.49
2023-03-05T10:03:31.279Z,77.36
2023-03-05T10:14:54.189Z,77.17
2023-03-05T10:20:45.713Z,76.94
2023-03-05T10:26:30.515Z,76.87
2023-03-05T10:32:06.735Z,77.07
2023-03-05T10:37:55.281Z,77.43
2023-03-05T10:44:02.917Z,77.70
2023-03-05T10:49:44.288Z,77.44
2023-03-05T10:55:07.072Z,77.22
2023-03-05T11:00:42.945Z,77.09
2023-03-05T11:06:16.897Z,76.33
2023-03-05T11:11:39.959Z,76.13
2023-03-05T11:17:04.558Z,75.96
2023-03-05T11:22:32.474Z,75.92
2023-03-05T11:28:03.927Z,75.96
2023-03-05T11:33:29.251Z,76.16
2023-03-05T11:39:03.295Z,76.37
2023-03-05T11:44:55.281Z,76.26
2023-03-05T11:50:30.712Z,76.36
2023-03-05T11:56:10.180Z,75.71
2023-03-05T12:01:39.597Z,74.53
2023-03-05T12:07:13.491Z,73.95
2023-03-05T12:12:49.371Z,73.08
2023-03-05T12:18:37.378Z,73.01
2023-03-05T12:24:08.654Z,72.99
2023-03-05T12:29:57.215Z,72.98
2023-03-05T12:35:44.190Z,72.73
2023-03-05T12:41:28.053Z,72.62
2023-03-05T12:46:54.777Z,72.22
2023-03-05T12:52:26.254Z,69.12
2023-03-05T12:57:52.246Z,65.60
2023-03-05T13:03:19.974Z,63.09
2023-03-05T13:08:48.327Z,62.02
2023-03-05T13:14:11.272Z,60.38
2023-03-05T13:19:36.635Z,58.57
2023-03-05T13:25:17.146Z,57.82
2023-03-05T13:30:41.818Z,57.36
2023-03-05T13:36:05.483Z,58.00
2023-03-05T13:41:39.104Z,60.71
2023-03-05T13:47:03.241Z,59.44
2023-03-05T13:52:31.770Z,58.69
2023-03-05T13:57:59.212Z,57.51
2023-03-05T14:03:34.967Z,57.12
2023-03-05T14:08:59.998Z,56.13
2023-03-05T14:14:32.009Z,54.80
2023-03-05T14:19:58.139Z,54.52
2023-03-05T14:25:40.562Z,56.65
2023-03-05T14:31:08.450Z,61.05
2023-03-05T14:36:39.361Z,67.86
2023-03-05T14:42:01.636Z,73.11
2023-03-05T14:47:23.959Z,77.22
2023-03-05T14:52:47.296Z,80.39
2023-03-05T14:58:23.508Z,83.11
2023-03-05T15:03:45.871Z,85.23
2023-03-05T15:09:08.305Z,87.28
2023-03-05T15:14:31.113Z,88.67
2023-03-05T15:19:54.297Z,89.74
2023-03-05T15:25:18.292Z,90.67
2023-03-05T15:30:53.398Z,91.46
2023-03-05T15:41:55.599Z,92.11
2023-03-05T15:47:18.132Z,93.42
2023-03-05T15:52:40.908Z,94.17
2023-03-05T15:58:05.733Z,95.11
2023-03-05T16:03:31.248Z,95.99
2023-03-05T16:09:00.779Z,96.84
2023-03-05T16:14:26.696Z,97.72
2023-03-05T16:19:51.608Z,98.45
2023-03-05T16:25:14.228Z,99.10
2023-03-05T16:30:37.891Z,99.65
2023-03-05T16:36:02.422Z,100.00
2023-03-05T16:41:27.106Z,100.00
2023-03-05T16:46:52.282Z,100.00
2023-03-05T16:52:19.580Z,100.00
2023-03-05T16:57:39.950Z,100.00
2023-03-05T17:03:02.625Z,100.00
2023-03-05T17:08:25.975Z,100.00
2023-03-05T17:13:49.588Z,100.00
2023-03-05T17:19:12.406Z,100.00
2023-03-05T17:24:35.124Z,100.00
2023-03-05T17:29:58.606Z,100.00
2023-03-05T17:35:24.034Z,100.00
2023-03-05T17:40:51.456Z,100.00
2023-03-05T17:46:38.973Z,100.00
2023-03-05T17:52:01.542Z,100.00
2023-03-05T17:57:25.152Z,100.00
2023-03-05T18:02:47.520Z,100.00
2023-03-05T18:08:10.394Z,100.00
2023-03-05T18:13:32.656Z,100.00
2023-03-05T18:18:55.712Z,100.00
2023-03-05T18:24:18.286Z,100.00
2023-03-05T18:29:41.750Z,100.00
2023-03-05T18:35:04.686Z,100.00
2023-03-05T18:40:29.745Z,100.00
2023-03-05T18:45:59.360Z,100.00
2023-03-05T18:51:26.471Z,100.00
2023-03-05T18:56:48.789Z,100.00
2023-03-05T19:02:11.081Z,100.00
2023-03-05T19:07:35.598Z,100.00
2023-03-05T19:13:00.144Z,100.00
2023-03-05T19:18:23.743Z,100.00
2023-03-05T19:23:46.165Z,100.00
2023-03-05T19:29:09.135Z,100.00
2023-03-05T19:34:31.904Z,100.00
2023-03-05T19:39:54.628Z,100.00
2023-03-05T19:45:17.296Z,100.00
2023-03-05T19:50:41.956Z,100.00
2023-03-05T19:56:04.956Z,100.00
2023-03-05T20:01:31.189Z,100.00
2023-03-05T20:06:54.046Z,100.00
2023-03-05T20:12:16.865Z,100.00
2023-03-05T20:17:39.058Z,100.00
2023-03-05T20:23:01.824Z,100.00
2023-03-05T20:28:25.961Z,100.00
2023-03-05T20:33:48.428Z,100.00
2023-03-05T20:39:11.178Z,100.00
2023-03-05T20:44:33.859Z,100.00
2023-03-05T20:49:58.814Z,100.00
2023-03-05T20:55:21.303Z,100.00
2023-03-05T21:00:45.247Z,100.00
2023-03-05T21:06:15.323Z,100.00
2023-03-05T21:11:39.967Z,100.00
2023-03-05T21:17:02.168Z,100.00
2023-03-05T21:22:25.598Z,100.00
2023-03-05T21:27:49.020Z,100.00
2023-03-05T21:33:14.356Z,100.00
2023-03-05T21:38:38.849Z,100.00
2023-03-05T21:44:04.461Z,100.00
2023-03-05T21:49:27.341Z,100.00
2023-03-05T21:54:50.791Z,100.00
2023-03-05T22:00:17.733Z,100.00
2023-03-05T22:05:40.111Z,100.00
2023-03-05T22:11:04.378Z,100.00
2023-03-05T22:16:31.396Z,100.00
2023-03-05T22:21:56.166Z,100.00
2023-03-05T22:27:20.005Z,100.00
2023-03-05T22:32:45.029Z,100.00
2023-03-05T22:38:08.028Z,100.00
2023-03-05T22:43:33.466Z,100.00
2023-03-05T22:48:57.012Z,100.00
2023-03-05T22:54:19.259Z,100.00
2023-03-05T22:59:42.958Z,100.00
2023-03-05T23:05:08.535Z,100.00
2023-03-05T23:10:34.948Z,100.00
2023-03-05T23:15:57.770Z,100.00
2023-03-05T23:21:20.030Z,100.00
2023-03-05T23:26:42.900Z,100.00
2023-03-05T23:32:08.744Z,100.00
2023-03-05T23:37:32.774Z,100.00
2023-03-05T23:42:56.087Z,100.00
2023-03-05T23:48:20.419Z,100.00
2023-03-05T23:53:44.458Z,100.00
2023-03-05T23:59:07.196Z,100.00
